Ana Sayfa
METAR-TAF:

METAR-TAF

Havaalanları :

Västerås, İsveç

Enlem: 59-35N, Boylam: 016-38E, yükseklik: 6 m

Güncel hava durumu gözlemi

Rapor saat 03:20 UTC de 21 dakika önce yapıldı.
Rüzgar batı/kuzeybatıdan 3 kt
Sıcaklık -3°C
Nem 86%
Basınç 1001 hPa
Görüş mesafesi 10 km veya daha fazla
hafif kar

METAR: ESOW 280320Z AUTO 30003KT 9999 -SN OVC023/// M03/M05 Q1001

Saat: 04:41 (03:41 UTC)

Tahmin

Rapor saat 11:30 UTC de 16 saat ve 11 dakika önce yapıldı.
Ayın 27'si saat 12 UTC'den ayın 27'si saat 16 UTC'ye kadar geçerli Tahmin
Rüzgar kuzey/kuzeydoğudan 10 kt
Görüş mesafesi: 5000 m
3000 ft yükseklikte parçalı çok bulutlu
hafif kar
Olasılık 40%
ayın 27'si saat 12 UTC'den ayın 27'si saat 16 UTC'ye kadar
Görüş mesafesi: 2000 m
1400 ft yükseklikte
kar

TAF: ESOW 271130Z 2712/2716 02010KT 5000 -SN BKN030 PROB40 2712/2716 2000 SN VV014

4.000'den fazla havaalanı için hava durumu gözlemleri ve tahminleri (METAR ve TAF raporları).

Kullanılabilir istasyonlar harita üzerinde sarı ve kırmızı noktalarla gösterilir.

İstasyonun adını görmek için fareyi noktanın üzerinde gezdirin.

Sonrasında hava gözlem ve tahminlerini görmek için tıklayın.

Haritayı değiştirmek için: yaklaştırmak için siyah artı işaretli yeşil düğmeye ve uzaklaştırmak için de eksi işaretli düğmeye hızla tıklayın; bitişik haritalar için yeşil okları kullanın.


METAR-TAF: